Time;durP1;ratioP1;P1;durP2;ratioP2;P2;SDS_P1;SDS_P2;PMS_P1;PMS_P2;Temp;Humidity;BMP_temperature;BMP_pressure;BME280_temperature;BME280_humidity;BME280_pressure;Samples;Min_cycle;Max_cycle;Signal;HPM_P1;HPM_P2
2022/12/11 00:01:22;;;;;;;32.47;14.50;;;12.80;98.10;;;;;;6240559;23;20490;-77
2022/12/11 00:03:50;;;;;;;28.33;14.70;;;12.80;98.20;;;;;;6239208;23;20248;-79
2022/12/11 00:06:21;;;;;;;29.60;15.17;;;12.80;98.20;;;;;;6239181;23;20627;-79
2022/12/11 00:08:53;;;;;;;30.77;16.33;;;12.80;98.20;;;;;;6235489;23;20163;-78
2022/12/11 00:11:22;;;;;;;25.80;14.53;;;12.80;98.20;;;;;;6239746;23;20175;-78
2022/12/11 00:13:51;;;;;;;31.33;16.03;;;12.80;98.20;;;;;;6242104;23;20159;-77
2022/12/11 00:16:19;;;;;;;33.20;13.93;;;12.80;98.20;;;;;;6242634;23;20170;-78
2022/12/11 00:18:54;;;;;;;27.60;14.37;;;12.80;98.20;;;;;;6237298;23;20236;-78
2022/12/11 00:21:22;;;;;;;24.50;14.20;;;12.80;98.10;;;;;;6243748;23;20167;-79
2022/12/11 00:23:52;;;;;;;34.17;15.40;;;12.80;98.10;;;;;;6239921;23;20174;-78
2022/12/11 00:26:20;;;;;;;30.27;15.00;;;12.80;98.10;;;;;;6242950;23;20187;-77
2022/12/11 00:28:53;;;;;;;26.03;14.83;;;12.80;98.10;;;;;;6239394;23;20209;-78
2022/12/11 00:31:23;;;;;;;29.67;14.50;;;12.80;98.10;;;;;;6241924;23;20159;-77
2022/12/11 00:33:52;;;;;;;24.97;13.60;;;12.80;98.10;;;;;;6241701;23;20491;-77
2022/12/11 00:36:22;;;;;;;26.03;14.10;;;12.80;98.10;;;;;;6242810;23;20175;-78
2022/12/11 00:38:52;;;;;;;29.90;14.60;;;12.80;98.20;;;;;;6240398;23;20159;-77
2022/12/11 00:41:21;;;;;;;30.23;15.07;;;12.90;98.20;;;;;;6243732;23;20162;-79
2022/12/11 00:43:49;;;;;;;28.53;13.67;;;12.80;98.20;;;;;;6239973;23;20221;-77
2022/12/11 00:46:18;;;;;;;27.93;14.03;;;12.80;98.20;;;;;;6240654;23;20224;-78
2022/12/11 00:48:48;;;;;;;27.97;14.10;;;12.80;98.20;;;;;;6240971;23;20174;-77
2022/12/11 00:51:17;;;;;;;30.63;15.17;;;12.80;98.30;;;;;;6241048;23;20516;-78
2022/12/11 00:53:46;;;;;;;29.03;14.63;;;12.80;98.20;;;;;;6241650;23;21033;-78
2022/12/11 00:56:18;;;;;;;31.13;14.77;;;12.80;98.20;;;;;;6244391;23;20159;-78
2022/12/11 00:58:47;;;;;;;24.23;13.20;;;12.80;98.40;;;;;;6236978;23;20163;-78
2022/12/11 01:01:18;;;;;;;30.73;13.63;;;12.90;98.50;;;;;;6241462;23;20206;-77
2022/12/11 01:03:47;;;;;;;27.90;14.60;;;12.80;98.50;;;;;;6240299;23;20170;-78
2022/12/11 01:06:17;;;;;;;26.17;13.57;;;12.80;98.50;;;;;;6240487;23;20170;-77
2022/12/11 01:08:45;;;;;;;27.73;14.93;;;12.80;98.70;;;;;;6238729;23;20155;-78
2022/12/11 01:11:16;;;;;;;26.60;14.90;;;12.80;98.60;;;;;;6239723;23;20643;-79
2022/12/11 01:13:45;;;;;;;29.67;14.63;;;12.80;98.80;;;;;;6240465;23;20185;-79
2022/12/11 01:16:15;;;;;;;22.97;13.23;;;12.80;98.90;;;;;;6242079;23;20174;-78
2022/12/11 01:18:44;;;;;;;25.40;13.60;;;12.80;98.80;;;;;;6242570;23;20627;-78
2022/12/11 01:21:13;;;;;;;30.43;14.23;;;12.80;98.70;;;;;;6242974;23;20198;-78
2022/12/11 01:23:42;;;;;;;26.80;13.80;;;12.80;98.80;;;;;;6242062;23;20170;-78
2022/12/11 01:26:13;;;;;;;29.40;14.27;;;12.90;98.80;;;;;;6239953;23;20194;-77
2022/12/11 01:28:43;;;;;;;27.97;14.87;;;12.90;98.70;;;;;;6240728;23;20166;-79
2022/12/11 01:31:13;;;;;;;26.43;15.50;;;12.80;98.80;;;;;;6241203;23;20154;-78
2022/12/11 01:33:41;;;;;;;32.23;14.50;;;12.90;98.80;;;;;;6237307;23;20171;-79
2022/12/11 01:36:14;;;;;;;25.03;12.90;;;12.90;98.80;;;;;;6243836;23;20236;-79
2022/12/11 01:38:42;;;;;;;25.90;14.40;;;12.90;98.80;;;;;;6239760;23;20174;-78
2022/12/11 01:41:11;;;;;;;29.40;14.47;;;12.80;98.80;;;;;;6240249;23;20567;-80
2022/12/11 01:44:02;;;;;;;27.07;14.20;;;12.90;98.80;;;;;;6239113;23;20217;-79
2022/12/11 01:46:32;;;;;;;30.17;14.77;;;12.90;98.80;;;;;;6242585;23;20171;-79
2022/12/11 01:49:04;;;;;;;29.20;15.27;;;12.80;98.80;;;;;;6240578;23;20170;-79
2022/12/11 01:51:35;;;;;;;30.70;14.87;;;12.80;98.80;;;;;;6238313;23;20163;-78
2022/12/11 01:54:07;;;;;;;31.40;14.97;;;12.80;98.80;;;;;;6239362;23;20159;-78
2022/12/11 01:56:37;;;;;;;27.13;15.20;;;12.90;98.80;;;;;;6239632;23;20529;-78
2022/12/11 01:59:09;;;;;;;23.07;12.90;;;12.90;98.80;;;;;;6233402;23;20159;-79
2022/12/11 02:01:41;;;;;;;27.63;14.67;;;12.90;98.80;;;;;;6236462;23;20210;-78
2022/12/11 02:04:10;;;;;;;26.70;14.20;;;12.90;98.70;;;;;;6244393;23;20234;-79
2022/12/11 02:06:40;;;;;;;27.43;13.80;;;12.80;98.70;;;;;;6239813;23;20243;-78
2022/12/11 02:09:12;;;;;;;27.40;14.77;;;12.80;98.80;;;;;;6241584;23;21261;-78
2022/12/11 02:11:52;;;;;;;27.63;15.37;;;12.80;98.70;;;;;;6239178;23;20198;-79
2022/12/11 02:14:30;;;;;;;25.83;13.53;;;12.90;98.80;;;;;;6239430;23;20166;-79
2022/12/11 02:17:04;;;;;;;26.10;14.17;;;12.80;98.80;;;;;;6239687;23;20745;-79
2022/12/11 02:19:48;;;;;;;26.50;14.47;;;12.90;98.80;;;;;;6243282;23;20219;-79
2022/12/11 02:22:27;;;;;;;30.80;14.13;;;12.90;98.80;;;;;;6239520;23;20588;-78
2022/12/11 02:25:08;;;;;;;25.20;13.73;;;12.90;98.70;;;;;;6240880;23;20216;-78
2022/12/11 02:27:44;;;;;;;27.50;14.77;;;12.80;99.10;;;;;;6240889;23;20523;-79
2022/12/11 02:30:15;;;;;;;23.53;13.87;;;12.80;98.70;;;;;;6242033;23;20154;-79
2022/12/11 02:32:47;;;;;;;30.03;14.43;;;12.80;99.10;;;;;;6239821;23;20171;-79
2022/12/11 02:35:19;;;;;;;26.37;13.47;;;12.80;98.90;;;;;;6242355;23;20162;-78
2022/12/11 02:37:53;;;;;;;28.10;14.40;;;12.80;98.80;;;;;;6239439;23;20166;-80
2022/12/11 02:40:25;;;;;;;28.57;14.63;;;12.80;98.80;;;;;;6241582;23;20194;-79
2022/12/11 02:42:55;;;;;;;29.97;14.70;;;12.80;98.80;;;;;;6238683;23;20185;-79
2022/12/11 02:45:26;;;;;;;25.17;14.17;;;12.80;98.80;;;;;;6240583;23;20252;-79
2022/12/11 02:47:57;;;;;;;25.83;13.73;;;12.80;98.80;;;;;;6239970;23;20158;-79
2022/12/11 02:50:27;;;;;;;30.17;14.70;;;12.70;98.90;;;;;;6240602;23;20170;-79
2022/12/11 02:52:57;;;;;;;24.83;14.27;;;12.70;98.90;;;;;;6238943;23;20181;-79
2022/12/11 02:55:28;;;;;;;26.47;14.30;;;12.80;98.90;;;;;;6239085;23;20217;-80
2022/12/11 02:58:03;;;;;;;28.50;14.10;;;12.70;99.00;;;;;;6239581;23;20240;-79
2022/12/11 03:00:34;;;;;;;24.90;13.87;;;12.70;99.00;;;;;;6241909;23;20189;-78
2022/12/11 03:03:03;;;;;;;30.63;14.40;;;12.70;99.00;;;;;;6236145;23;20170;-77
2022/12/11 03:05:32;;;;;;;27.67;14.27;;;12.70;99.00;;;;;;6241656;23;20236;-81
2022/12/11 03:08:01;;;;;;;27.53;13.13;;;12.70;99.00;;;;;;6240093;23;20252;-80
2022/12/11 03:10:30;;;;;;;30.97;15.10;;;12.70;99.00;;;;;;6240476;23;20177;-79
2022/12/11 03:13:00;;;;;;;26.73;14.00;;;12.70;99.50;;;;;;6240474;23;20198;-81
2022/12/11 03:15:34;;;;;;;22.63;12.83;;;12.70;99.10;;;;;;6237534;23;20174;-80
2022/12/11 03:18:09;;;;;;;26.63;12.47;;;12.70;99.20;;;;;;6240081;23;20216;-80
2022/12/11 03:20:41;;;;;;;22.37;12.17;;;12.70;99.20;;;;;;6244415;23;20635;-78
2022/12/11 03:23:20;;;;;;;22.83;12.67;;;12.70;99.40;;;;;;6241612;23;20212;-80
2022/12/11 03:25:54;;;;;;;30.13;12.57;;;12.70;99.30;;;;;;6240732;23;20224;-79
2022/12/11 03:28:29;;;;;;;28.47;12.83;;;12.70;99.40;;;;;;6240399;23;20655;-80
2022/12/11 03:31:05;;;;;;;27.47;12.17;;;12.70;99.30;;;;;;6238914;23;20544;-80
2022/12/11 03:33:37;;;;;;;22.60;12.70;;;12.70;99.20;;;;;;6243477;23;20216;-80
2022/12/11 03:36:10;;;;;;;27.37;13.60;;;12.70;99.20;;;;;;6244199;23;20677;-79
2022/12/11 03:38:44;;;;;;;26.50;13.17;;;12.70;99.20;;;;;;6237210;23;20758;-81
2022/12/11 03:41:15;;;;;;;24.10;12.73;;;12.80;99.20;;;;;;6237420;23;20187;-79
2022/12/11 03:43:45;;;;;;;23.13;12.20;;;12.80;99.20;;;;;;6242739;23;20189;-79
2022/12/11 03:46:18;;;;;;;21.53;11.90;;;12.80;99.10;;;;;;6238305;23;20574;-81
2022/12/11 03:48:49;;;;;;;23.63;12.30;;;12.80;99.20;;;;;;6240760;23;20155;-79
2022/12/11 03:51:18;;;;;;;23.63;12.53;;;12.80;99.20;;;;;;6241468;23;20163;-79
2022/12/11 03:53:48;;;;;;;21.13;12.00;;;12.80;99.20;;;;;;6243125;23;20205;-80
2022/12/11 03:56:18;;;;;;;21.17;11.30;;;12.80;99.40;;;;;;6240545;23;20548;-81
2022/12/11 03:58:46;;;;;;;20.63;11.73;;;12.80;99.50;;;;;;6243116;23;20174;-80
2022/12/11 04:01:16;;;;;;;20.57;11.03;;;12.80;99.50;;;;;;6242388;23;20583;-79
2022/12/11 04:03:45;;;;;;;23.50;12.07;;;12.80;99.50;;;;;;6242178;23;20170;-80
2022/12/11 04:06:13;;;;;;;24.97;12.23;;;12.80;99.40;;;;;;6242545;23;21026;-80
2022/12/11 04:08:41;;;;;;;26.97;12.07;;;12.80;99.40;;;;;;6238361;23;20484;-79
2022/12/11 04:16:40;;;;;;;20.77;11.40;;;12.90;99.50;;;;;;6238482;23;20174;-80
2022/12/11 04:24:37;;;;;;;25.13;12.93;;;12.90;99.50;;;;;;6239970;23;20159;-80
2022/12/11 04:27:05;;;;;;;21.67;11.43;;;12.90;99.50;;;;;;6240750;23;20225;-79
2022/12/11 04:29:33;;;;;;;22.10;11.00;;;13.00;99.50;;;;;;6240480;23;20188;-79
2022/12/11 04:32:03;;;;;;;24.37;11.17;;;13.00;99.50;;;;;;6240078;23;20170;-79
2022/12/11 04:34:31;;;;;;;23.57;10.93;;;13.00;99.50;;;;;;6239098;23;20476;-81
2022/12/11 04:36:59;;;;;;;22.90;11.57;;;13.00;99.50;;;;;;6239847;23;20508;-81
2022/12/11 04:39:28;;;;;;;25.17;10.77;;;13.00;99.40;;;;;;6241694;23;20225;-80
2022/12/11 04:41:56;;;;;;;23.20;11.27;;;13.10;99.40;;;;;;6239101;23;20198;-80
2022/12/11 04:44:24;;;;;;;22.97;11.50;;;13.00;99.40;;;;;;6241923;23;20170;-80
2022/12/11 04:46:52;;;;;;;23.40;11.80;;;13.10;99.40;;;;;;6240178;23;20166;-80
2022/12/11 04:49:22;;;;;;;20.40;10.83;;;13.10;99.40;;;;;;6240165;23;20218;-80
2022/12/11 04:51:50;;;;;;;26.70;11.13;;;13.10;99.30;;;;;;6241690;23;20228;-81
2022/12/11 04:54:19;;;;;;;21.80;10.27;;;13.10;99.40;;;;;;6242847;23;20229;-80
2022/12/11 04:56:47;;;;;;;20.90;11.10;;;13.10;99.30;;;;;;6239126;23;20186;-80
2022/12/11 04:59:16;;;;;;;18.70;10.40;;;13.10;99.40;;;;;;6239995;23;20167;-80
2022/12/11 05:01:44;;;;;;;20.83;10.63;;;13.10;99.30;;;;;;6240134;23;20198;-78
2022/12/11 05:04:13;;;;;;;19.23;10.87;;;13.10;99.30;;;;;;6240283;23;20173;-79
2022/12/11 05:06:42;;;;;;;20.87;10.77;;;13.10;99.20;;;;;;6241257;23;20635;-79
2022/12/11 05:09:12;;;;;;;22.37;10.67;;;13.20;99.30;;;;;;6242606;23;20170;-78
2022/12/11 05:11:40;;;;;;;21.00;11.27;;;13.10;99.20;;;;;;6240819;23;20598;-80
2022/12/11 05:14:09;;;;;;;21.70;11.07;;;13.20;99.40;;;;;;6241213;23;20155;-79
2022/12/11 05:16:37;;;;;;;22.47;10.93;;;13.10;99.30;;;;;;6240656;23;20167;-80
2022/12/11 05:19:06;;;;;;;20.23;10.03;;;13.20;99.30;;;;;;6240250;23;20171;-80
2022/12/11 05:21:34;;;;;;;24.07;10.57;;;13.20;99.30;;;;;;6239134;23;20198;-78
2022/12/11 05:24:04;;;;;;;23.33;11.03;;;13.10;99.40;;;;;;6243647;23;20216;-78
2022/12/11 05:26:33;;;;;;;20.00;10.23;;;13.20;99.40;;;;;;6239495;23;20166;-79
2022/12/11 05:29:01;;;;;;;25.73;11.03;;;13.20;99.40;;;;;;6239575;23;20170;-79
2022/12/11 05:31:30;;;;;;;25.00;10.20;;;13.20;99.40;;;;;;6239700;23;20189;-79
2022/12/11 05:33:58;;;;;;;21.30;10.93;;;13.20;99.40;;;;;;6241413;23;20215;-79
2022/12/11 05:36:28;;;;;;;22.87;11.23;;;13.20;99.40;;;;;;6238573;23;20224;-80
2022/12/11 05:38:59;;;;;;;22.37;10.97;;;13.20;99.50;;;;;;6240341;23;20167;-78
2022/12/11 05:41:31;;;;;;;26.37;11.00;;;13.20;99.60;;;;;;6239925;23;20623;-79
2022/12/11 05:44:00;;;;;;;26.10;10.80;;;13.20;99.50;;;;;;6239958;23;20166;-79
2022/12/11 05:46:30;;;;;;;17.50;10.43;;;13.20;99.50;;;;;;6238648;23;20639;-79
2022/12/11 05:49:00;;;;;;;21.97;10.70;;;13.30;99.50;;;;;;6242066;23;20158;-78
2022/12/11 05:51:30;;;;;;;20.23;11.63;;;13.30;99.50;;;;;;6240053;23;20232;-79
2022/12/11 05:53:58;;;;;;;17.50;10.97;;;13.30;99.40;;;;;;6242261;23;20225;-79
2022/12/11 05:56:30;;;;;;;22.57;10.83;;;13.30;99.40;;;;;;6241123;23;20640;-82
2022/12/11 05:59:00;;;;;;;20.20;10.67;;;13.40;99.40;;;;;;6241805;23;20615;-80
2022/12/11 06:01:30;;;;;;;22.70;12.43;;;13.40;99.40;;;;;;6240203;23;20559;-79
2022/12/11 06:03:59;;;;;;;23.27;12.40;;;13.40;99.40;;;;;;6240879;23;20186;-81
2022/12/11 06:06:29;;;;;;;24.43;12.40;;;13.40;99.30;;;;;;6242734;23;20177;-81
2022/12/11 06:08:58;;;;;;;27.30;13.40;;;13.40;99.30;;;;;;6242816;23;20209;-79
2022/12/11 06:11:30;;;;;;;22.20;12.00;;;13.40;99.30;;;;;;6236415;23;20178;-81
2022/12/11 06:13:59;;;;;;;20.97;11.53;;;13.50;99.30;;;;;;6239133;23;20205;-80
2022/12/11 06:16:27;;;;;;;22.80;10.97;;;13.50;99.60;;;;;;6240167;23;20198;-80
2022/12/11 06:18:55;;;;;;;26.47;11.73;;;13.50;99.30;;;;;;6239732;23;20170;-80
2022/12/11 06:21:28;;;;;;;21.97;12.17;;;13.50;99.30;;;;;;6239564;23;20184;-79
2022/12/11 06:23:58;;;;;;;23.70;11.17;;;13.50;99.20;;;;;;6243074;23;20190;-79
2022/12/11 06:26:27;;;;;;;24.13;11.80;;;13.60;99.30;;;;;;6239802;23;20252;-79
2022/12/11 06:28:56;;;;;;;23.13;10.83;;;13.60;99.20;;;;;;6242239;23;20177;-80
2022/12/11 06:31:25;;;;;;;26.80;11.30;;;13.60;99.20;;;;;;6237923;23;20744;-81
2022/12/11 06:33:53;;;;;;;20.17;10.60;;;13.60;99.20;;;;;;6239551;23;20251;-80
2022/12/11 06:36:24;;;;;;;21.27;10.37;;;13.60;99.10;;;;;;6241430;23;20170;-82
2022/12/11 06:38:52;;;;;;;17.00;10.10;;;13.70;99.20;;;;;;6240239;23;20213;-81
2022/12/11 06:41:21;;;;;;;25.23;10.57;;;13.70;99.10;;;;;;6239057;23;20174;-80
2022/12/11 06:43:49;;;;;;;21.83;10.53;;;13.70;99.10;;;;;;6240603;23;20202;-82
2022/12/11 06:46:20;;;;;;;20.53;11.50;;;13.70;99.10;;;;;;6236650;23;20623;-81
2022/12/11 06:48:49;;;;;;;27.33;11.37;;;13.80;99.10;;;;;;6235166;23;20254;-80
2022/12/11 06:51:19;;;;;;;21.17;11.13;;;13.80;99.50;;;;;;6244204;23;20631;-81
2022/12/11 06:53:52;;;;;;;25.57;11.00;;;13.80;99.10;;;;;;6241116;23;20174;-81
2022/12/11 06:56:21;;;;;;;20.27;10.73;;;13.80;99.10;;;;;;6243656;23;20212;-80
2022/12/11 06:58:50;;;;;;;21.67;12.23;;;13.80;99.10;;;;;;6243481;23;20171;-82
2022/12/11 07:01:22;;;;;;;25.60;13.85;;;13.90;99.10;;;;;;6241473;23;20397;-81
2022/12/11 07:03:53;;;;;;;21.03;12.40;;;13.90;99.30;;;;;;6239045;23;20193;-82
2022/12/11 07:06:22;;;;;;;20.90;12.67;;;13.90;99.30;;;;;;6236431;23;20159;-81
2022/12/11 07:08:51;;;;;;;30.77;17.13;;;14.00;99.30;;;;;;6239343;23;20644;-80
2022/12/11 07:11:21;;;;;;;28.97;15.97;;;14.00;99.30;;;;;;6237483;23;20171;-81
2022/12/11 07:13:50;;;;;;;28.13;15.90;;;14.10;99.30;;;;;;6241327;23;20620;-81
2022/12/11 07:16:21;;;;;;;31.30;15.87;;;14.20;99.30;;;;;;6242963;23;20201;-81
2022/12/11 07:18:50;;;;;;;34.87;17.53;;;14.20;99.30;;;;;;6243884;23;20177;-81
2022/12/11 07:21:20;;;;;;;25.33;13.70;;;14.30;99.30;;;;;;6240012;23;20174;-81
2022/12/11 07:23:49;;;;;;;27.93;14.00;;;14.30;99.30;;;;;;6245137;23;20673;-81
2022/12/11 07:26:20;;;;;;;26.10;13.17;;;14.40;99.30;;;;;;6242392;23;20269;-81
2022/12/11 07:28:48;;;;;;;30.13;12.03;;;14.50;99.30;;;;;;6240915;23;20167;-81
2022/12/11 07:31:19;;;;;;;24.17;11.50;;;14.50;99.30;;;;;;6240309;23;20240;-80
2022/12/11 07:33:54;;;;;;;26.87;12.47;;;14.60;99.30;;;;;;6240596;23;20158;-79
2022/12/11 07:36:22;;;;;;;21.23;10.90;;;14.60;99.40;;;;;;6240470;23;20163;-79
2022/12/11 07:38:50;;;;;;;26.33;10.60;;;14.70;99.40;;;;;;6235101;23;20232;-81
2022/12/11 07:41:19;;;;;;;23.90;10.73;;;14.70;99.50;;;;;;6239520;23;20193;-80
2022/12/11 07:43:48;;;;;;;20.80;11.32;;;14.70;99.50;;;;;;6238601;23;20414;-80
2022/12/11 07:46:19;;;;;;;16.83;9.60;;;14.80;99.60;;;;;;6241003;23;20174;-79
2022/12/11 07:48:50;;;;;;;21.03;11.17;;;14.80;99.60;;;;;;6240315;23;20189;-80
2022/12/11 07:51:21;;;;;;;21.60;10.90;;;14.90;99.70;;;;;;6242018;23;20195;-77
2022/12/11 07:53:50;;;;;;;18.43;9.90;;;14.80;99.70;;;;;;6243333;23;20155;-78
2022/12/11 07:56:19;;;;;;;21.90;10.43;;;14.90;99.70;;;;;;6241019;23;20205;-80
2022/12/11 07:58:48;;;;;;;17.43;8.83;;;14.90;99.80;;;;;;6243184;23;20221;-79
2022/12/11 08:01:18;;;;;;;22.27;10.43;;;14.90;99.90;;;;;;6242575;23;20197;-80
2022/12/11 08:03:46;;;;;;;17.80;8.13;;;15.00;99.90;;;;;;6243747;23;20186;-80
2022/12/11 08:06:17;;;;;;;20.53;9.30;;;15.00;99.90;;;;;;6244520;23;20167;-78
2022/12/11 08:08:45;;;;;;;16.70;8.00;;;15.00;99.90;;;;;;6245206;23;20159;-78
2022/12/11 08:11:15;;;;;;;15.73;7.47;;;15.20;99.90;;;;;;6240692;23;20250;-77
2022/12/11 08:13:43;;;;;;;14.10;6.77;;;15.20;99.90;;;;;;6241181;23;20243;-80
2022/12/11 08:16:14;;;;;;;14.37;6.17;;;15.30;99.90;;;;;;6240715;23;20461;-78
2022/12/11 08:18:43;;;;;;;12.63;6.23;;;15.40;99.90;;;;;;6239337;23;20159;-77
2022/12/11 08:21:13;;;;;;;13.73;6.23;;;15.50;99.90;;;;;;6243124;23;20171;-78
2022/12/11 08:23:44;;;;;;;12.93;5.67;;;15.60;99.90;;;;;;6238529;23;20654;-78
2022/12/11 08:26:14;;;;;;;11.93;4.53;;;15.70;99.90;;;;;;6242700;23;20209;-77
2022/12/11 08:28:43;;;;;;;9.97;4.60;;;15.80;99.90;;;;;;6240273;23;20677;-78
2022/12/11 08:31:14;;;;;;;6.97;3.60;;;15.90;99.90;;;;;;6241620;23;20174;-79
2022/12/11 08:33:43;;;;;;;7.10;3.20;;;16.00;99.90;;;;;;6242474;23;20770;-79
2022/12/11 08:36:17;;;;;;;10.50;3.67;;;16.10;99.90;;;;;;6237488;23;20248;-77
2022/12/11 08:38:47;;;;;;;11.37;3.80;;;16.20;99.70;;;;;;6188756;23;20243;-80
2022/12/11 08:41:18;;;;;;;11.93;3.40;;;16.30;98.90;;;;;;6239233;23;20281;-80
2022/12/11 08:43:47;;;;;;;10.00;2.97;;;16.40;98.80;;;;;;6243215;23;20186;-78
2022/12/11 08:46:16;;;;;;;6.77;2.50;;;16.50;98.40;;;;;;6240989;23;20205;-79
2022/12/11 08:48:44;;;;;;;13.27;2.60;;;16.60;98.20;;;;;;6243052;23;20178;-79
2022/12/11 08:51:15;;;;;;;9.53;2.67;;;16.80;97.90;;;;;;6244267;23;20619;-79
2022/12/11 08:53:45;;;;;;;6.63;2.17;;;16.80;97.60;;;;;;6241830;23;20208;-78
2022/12/11 08:56:16;;;;;;;6.93;2.87;;;16.90;97.10;;;;;;6241377;23;20167;-79
2022/12/11 08:58:44;;;;;;;4.80;1.93;;;17.00;97.10;;;;;;6244467;23;20159;-78
2022/12/11 09:01:14;;;;;;;8.87;2.53;;;17.10;96.30;;;;;;6239188;23;20171;-78
2022/12/11 09:03:43;;;;;;;8.03;3.03;;;17.10;96.00;;;;;;6241061;23;20190;-79
2022/12/11 09:06:14;;;;;;;5.40;2.30;;;17.20;95.80;;;;;;6245150;23;20502;-78
2022/12/11 09:08:44;;;;;;;14.40;3.57;;;17.30;95.60;;;;;;6241258;23;20162;-79
2022/12/11 09:11:22;;;;;;;8.37;2.67;;;17.30;95.10;;;;;;6242185;23;20162;-79
2022/12/11 09:13:52;;;;;;;12.33;2.50;;;17.40;95.10;;;;;;6242484;23;20604;-78
2022/12/11 09:16:21;;;;;;;8.03;2.73;;;17.40;94.70;;;;;;6244228;23;20155;-80
2022/12/11 09:18:52;;;;;;;8.20;2.80;;;17.40;94.90;;;;;;6244719;23;20170;-79
2022/12/11 09:21:23;;;;;;;5.57;2.90;;;17.50;95.00;;;;;;6243879;23;20201;-77
2022/12/11 09:23:54;;;;;;;8.07;3.27;;;17.50;94.80;;;;;;6241230;23;20585;-78
2022/12/11 09:26:24;;;;;;;11.90;3.47;;;17.60;94.70;;;;;;6240823;23;20159;-78
2022/12/11 09:28:53;;;;;;;8.77;3.57;;;17.60;94.70;;;;;;6245508;23;20213;-78
2022/12/11 09:31:23;;;;;;;10.10;3.97;;;17.70;94.70;;;;;;6243817;23;20171;-79
2022/12/11 09:33:54;;;;;;;8.00;3.60;;;17.70;94.50;;;;;;6242522;23;20167;-79
2022/12/11 09:36:22;;;;;;;9.80;3.80;;;17.70;94.00;;;;;;6241894;23;20595;-78
2022/12/11 09:38:51;;;;;;;11.47;3.70;;;17.70;93.70;;;;;;6245467;23;20170;-80
2022/12/11 09:41:39;;;;;;;9.10;3.90;;;17.80;93.60;;;;;;6243588;23;20237;-79
2022/12/11 09:44:38;;;;;;;5.10;3.07;;;17.80;93.40;;;;;;6243648;23;20194;-78
2022/12/11 09:47:21;;;;;;;7.23;3.30;;;17.90;93.40;;;;;;6243275;23;20488;-79
2022/12/11 09:49:55;;;;;;;7.03;3.30;;;17.90;93.30;;;;;;6244553;23;20801;-78
2022/12/11 09:52:31;;;;;;;8.50;2.93;;;17.90;93.00;;;;;;6244026;23;20162;-79
2022/12/11 09:55:03;;;;;;;6.87;3.30;;;17.90;93.10;;;;;;6243416;23;20162;-78
2022/12/11 09:57:46;;;;;;;9.80;3.43;;;18.00;93.30;;;;;;6239793;23;20159;-80
2022/12/11 10:00:21;;;;;;;6.70;3.23;;;18.00;93.40;;;;;;6243880;23;20218;-79
2022/12/11 10:03:11;;;;;;;10.17;2.97;;;18.00;93.20;;;;;;6242784;23;20532;-79
2022/12/11 10:05:49;;;;;;;11.73;3.13;;;18.00;93.20;;;;;;6243484;23;20198;-79
2022/12/11 10:08:26;;;;;;;7.27;3.53;;;18.00;93.00;;;;;;6242335;23;20181;-78
2022/12/11 10:11:03;;;;;;;9.40;3.83;;;18.10;93.20;;;;;;6241431;23;20158;-81
2022/12/11 10:13:41;;;;;;;10.47;3.77;;;18.10;93.20;;;;;;6212076;23;20233;-78
2022/12/11 10:16:19;;;;;;;8.93;4.30;;;18.20;93.20;;;;;;6212873;23;20221;-77
2022/12/11 10:18:49;;;;;;;7.40;3.40;;;18.20;93.00;;;;;;6213362;23;20478;-79
2022/12/11 10:21:19;;;;;;;8.67;3.27;;;18.30;93.00;;;;;;6212012;23;20175;-78
2022/12/11 10:23:53;;;;;;;12.27;4.03;;;18.40;92.90;;;;;;6214230;23;20167;-81
2022/12/11 10:26:23;;;;;;;6.90;3.57;;;18.40;91.90;;;;;;6208565;23;20167;-78
2022/12/11 10:28:53;;;;;;;8.00;3.77;;;18.40;91.60;;;;;;6213822;23;20219;-79
2022/12/11 10:31:31;;;;;;;14.27;3.93;;;18.40;91.50;;;;;;6212465;23;20175;-78
2022/12/11 10:34:02;;;;;;;6.33;3.00;;;18.40;91.20;;;;;;6214508;23;20166;-79
2022/12/11 10:36:32;;;;;;;5.30;3.00;;;18.40;91.30;;;;;;6210841;23;20159;-79
2022/12/11 10:39:01;;;;;;;9.10;3.73;;;18.40;91.20;;;;;;6212794;23;20206;-79
2022/12/11 10:41:38;;;;;;;9.37;4.10;;;18.30;91.30;;;;;;6210055;23;20567;-79
2022/12/11 10:44:17;;;;;;;10.33;4.30;;;18.30;91.40;;;;;;6213350;23;20158;-79
2022/12/11 10:46:46;;;;;;;8.90;3.23;;;18.30;91.30;;;;;;6146121;23;21091;-79
2022/12/11 10:49:24;;;;;;;7.47;3.50;;;18.40;91.30;;;;;;6150275;23;20231;-79
2022/12/11 10:51:54;;;;;;;11.10;3.93;;;18.40;91.00;;;;;;6150047;23;20176;-79
2022/12/11 10:54:33;;;;;;;8.30;3.17;;;18.40;91.20;;;;;;6150834;23;20196;-79
2022/12/11 10:57:03;;;;;;;8.90;3.30;;;18.40;91.00;;;;;;6146658;23;20208;-78
2022/12/11 10:59:38;;;;;;;9.07;3.77;;;18.60;90.90;;;;;;6150813;23;20227;-78
2022/12/11 11:02:17;;;;;;;7.63;3.93;;;18.70;90.90;;;;;;6149005;23;20172;-79
2022/12/11 11:04:46;;;;;;;8.52;4.00;;;18.80;91.00;;;;;;6172032;23;20738;-78
2022/12/11 11:07:18;;;;;;;5.80;2.77;;;18.80;90.80;;;;;;6210075;23;20176;-80
2022/12/11 11:09:48;;;;;;;7.73;3.67;;;18.80;90.50;;;;;;6210244;23;20604;-81
2022/12/11 11:12:25;;;;;;;14.68;4.20;;;18.80;90.20;;;;;;6224426;23;20206;-78
2022/12/11 11:15:02;;;;;;;15.20;4.03;;;18.90;90.40;;;;;;6239059;23;20166;-81
2022/12/11 11:17:32;;;;;;;9.30;3.80;;;18.90;90.30;;;;;;6232219;23;20159;-79
2022/12/11 11:20:13;;;;;;;7.70;3.28;;;18.90;90.20;;;;;;6238360;23;20170;-78
2022/12/11 11:22:47;;;;;;;11.05;4.10;;;19.00;90.10;;;;;;6238418;23;20159;-82
2022/12/11 11:25:20;;;;;;;8.07;3.73;;;19.10;89.80;;;;;;6241278;23;20511;-80
2022/12/11 11:27:52;;;;;;;8.38;3.38;;;19.10;89.40;;;;;;6238194;23;20486;-80
2022/12/11 11:30:24;;;;;;;7.38;3.40;;;19.00;88.60;;;;;;6243484;23;20669;-81
2022/12/11 11:32:55;;;;;;;6.63;3.47;;;19.10;89.30;;;;;;6238589;23;20663;-80
2022/12/11 11:35:26;;;;;;;12.88;4.30;;;19.10;88.60;;;;;;6239612;23;20671;-77
2022/12/11 11:38:00;;;;;;;9.02;3.85;;;19.10;88.20;;;;;;6241193;23;20158;-80
2022/12/11 11:40:30;;;;;;;10.60;3.53;;;19.10;88.00;;;;;;6241331;23;20163;-80
2022/12/11 11:43:07;;;;;;;7.03;3.33;;;19.10;87.70;;;;;;6243485;23;20216;-81
2022/12/11 11:45:44;;;;;;;8.05;3.08;;;19.10;87.20;;;;;;6241224;23;20240;-81
2022/12/11 11:48:24;;;;;;;7.55;3.55;;;19.10;87.70;;;;;;6241547;23;20626;-81
2022/12/11 11:50:53;;;;;;;7.53;3.35;;;19.10;87.40;;;;;;6245389;23;20554;-80
2022/12/11 11:53:30;;;;;;;6.20;3.58;;;19.20;87.70;;;;;;6239844;23;20615;-82
2022/12/11 11:56:04;;;;;;;7.50;4.00;;;19.20;86.80;;;;;;6240249;23;20162;-81
2022/12/11 11:58:39;;;;;;;11.60;3.80;;;19.10;87.40;;;;;;6240740;23;20166;-81
2022/12/11 12:01:15;;;;;;;11.10;4.30;;;19.10;88.00;;;;;;6244323;23;20157;-81
2022/12/11 12:03:44;;;;;;;6.85;4.30;;;19.10;88.20;;;;;;6241905;23;20548;-81
2022/12/11 12:06:25;;;;;;;12.13;4.70;;;19.00;88.30;;;;;;6238547;23;20190;-81
2022/12/11 12:08:58;;;;;;;10.07;4.68;;;19.00;88.60;;;;;;6241423;23;20158;-80
2022/12/11 12:11:34;;;;;;;8.25;4.88;;;19.00;88.70;;;;;;6239029;23;20194;-81
2022/12/11 12:14:13;;;;;;;7.43;4.10;;;18.90;88.80;;;;;;6243592;23;20158;-81
2022/12/11 12:17:14;;;;;;;7.37;5.00;;;18.90;89.00;;;;;;6237860;23;20285;-80
2022/12/11 12:19:49;;;;;;;11.27;4.75;;;18.80;89.20;;;;;;6237358;23;20201;-82
2022/12/11 12:22:37;;;;;;;10.48;4.20;;;18.80;89.70;;;;;;6239615;23;20607;-81
2022/12/11 12:25:17;;;;;;;14.45;4.85;;;18.80;90.00;;;;;;6237251;23;20163;-81
2022/12/11 12:27:54;;;;;;;10.55;5.18;;;18.80;90.10;;;;;;6241377;23;20163;-79
2022/12/11 12:30:23;;;;;;;9.00;4.70;;;18.80;90.10;;;;;;6240856;23;20154;-81
2022/12/11 12:33:07;;;;;;;8.48;4.85;;;18.70;90.00;;;;;;6240364;23;20174;-81
2022/12/11 12:35:37;;;;;;;8.67;4.27;;;18.70;90.20;;;;;;6243171;23;20654;-80
2022/12/11 12:38:11;;;;;;;10.10;5.23;;;18.60;90.20;;;;;;6242306;23;20502;-80
2022/12/11 12:40:54;;;;;;;9.37;4.97;;;18.50;90.20;;;;;;6238450;23;20154;-80
2022/12/11 12:43:48;;;;;;;8.13;4.20;;;18.50;90.20;;;;;;6241433;23;20213;-81
2022/12/11 12:46:28;;;;;;;7.60;4.10;;;18.40;90.30;;;;;;6235916;23;20202;-82
2022/12/11 12:49:01;;;;;;;8.17;4.17;;;18.40;90.40;;;;;;6239775;23;20245;-81
2022/12/11 12:51:30;;;;;;;10.57;4.60;;;18.30;90.50;;;;;;6242259;23;20155;-79
2022/12/11 12:54:02;;;;;;;14.10;5.40;;;18.20;90.60;;;;;;6240052;23;20221;-79
2022/12/11 12:56:42;;;;;;;8.60;4.27;;;18.20;90.70;;;;;;6242900;23;20163;-82
2022/12/11 12:59:21;;;;;;;9.60;4.73;;;18.20;90.70;;;;;;6245389;23;20194;-79
2022/12/11 13:01:53;;;;;;;10.73;4.80;;;18.10;90.80;;;;;;6239851;23;20232;-82
2022/12/11 13:04:36;;;;;;;13.93;5.40;;;18.10;91.00;;;;;;6241894;23;20211;-81
2022/12/11 13:07:28;;;;;;;13.57;6.07;;;18.00;91.30;;;;;;6240791;23;20839;-82